Arnoldsville, Georgia
Current Conditions -  °F | °C
As of 2:51 PM on Saturday 20 Dec 2014 (Local Time) from KAHN Reporting Station
Haze Haze  
Wind Chill:   Ceiling: 600
Heat Index:   Visibility: 3mi
Dew Point:   Wind: 5mph
Humidity: 89%   Direction: 40°NE
Pressure: 30.16"   Gusts: NA
Location:  33.91°N, 83.22°W
Report Text: KAHN 201951Z 04004KT 3SM BR OVC006 09/07 A3016 RMK AO2 SLP217 T00890072
Loading
Personal Weather Stations






























Interactive Weather Map New forecast layout! Learn more

10-Day Weather Forecast

Advertisements
Track Severe Weather on mobile